sensor_id;sensor_type;location;lat;lon;timestamp;P1;durP1;ratioP1;P2;durP2;ratioP2
10412;SDS011;5252;42.602;23.386;2022-08-26T00:00:12;9.68;;;3.72;;
10412;SDS011;5252;42.602;23.386;2022-08-26T00:02:39;10.60;;;4.10;;
10412;SDS011;5252;42.602;23.386;2022-08-26T00:05:06;15.45;;;4.28;;
10412;SDS011;5252;42.602;23.386;2022-08-26T00:07:34;7.75;;;3.70;;
10412;SDS011;5252;42.602;23.386;2022-08-26T00:10:00;12.32;;;3.75;;
10412;SDS011;5252;42.602;23.386;2022-08-26T00:12:27;9.75;;;4.03;;
10412;SDS011;5252;42.602;23.386;2022-08-26T00:14:53;10.43;;;3.92;;
10412;SDS011;5252;42.602;23.386;2022-08-26T00:17:20;15.48;;;4.07;;
10412;SDS011;5252;42.602;23.386;2022-08-26T00:19:47;11.15;;;3.80;;
10412;SDS011;5252;42.602;23.386;2022-08-26T00:22:14;11.75;;;4.20;;
10412;SDS011;5252;42.602;23.386;2022-08-26T00:24:42;13.02;;;4.30;;
10412;SDS011;5252;42.602;23.386;2022-08-26T00:27:08;13.63;;;4.10;;
10412;SDS011;5252;42.602;23.386;2022-08-26T00:29:35;13.93;;;4.20;;
10412;SDS011;5252;42.602;23.386;2022-08-26T00:32:01;15.30;;;3.95;;
10412;SDS011;5252;42.602;23.386;2022-08-26T00:34:28;16.40;;;4.47;;
10412;SDS011;5252;42.602;23.386;2022-08-26T00:36:54;11.52;;;4.47;;
10412;SDS011;5252;42.602;23.386;2022-08-26T00:39:21;17.20;;;4.30;;
10412;SDS011;5252;42.602;23.386;2022-08-26T00:41:49;10.95;;;3.88;;
10412;SDS011;5252;42.602;23.386;2022-08-26T00:44:15;9.27;;;3.88;;
10412;SDS011;5252;42.602;23.386;2022-08-26T00:46:43;11.10;;;3.85;;
10412;SDS011;5252;42.602;23.386;2022-08-26T00:49:11;9.32;;;3.90;;
10412;SDS011;5252;42.602;23.386;2022-08-26T00:51:40;17.95;;;4.25;;
10412;SDS011;5252;42.602;23.386;2022-08-26T00:54:07;11.05;;;3.50;;
10412;SDS011;5252;42.602;23.386;2022-08-26T00:56:35;13.50;;;3.88;;
10412;SDS011;5252;42.602;23.386;2022-08-26T00:59:06;11.75;;;3.88;;
10412;SDS011;5252;42.602;23.386;2022-08-26T01:01:33;10.65;;;3.53;;
10412;SDS011;5252;42.602;23.386;2022-08-26T01:03:59;13.00;;;3.85;;
10412;SDS011;5252;42.602;23.386;2022-08-26T01:06:26;13.23;;;3.58;;
10412;SDS011;5252;42.602;23.386;2022-08-26T01:08:54;13.93;;;3.88;;
10412;SDS011;5252;42.602;23.386;2022-08-26T01:11:20;16.63;;;4.15;;
10412;SDS011;5252;42.602;23.386;2022-08-26T01:13:47;12.20;;;3.83;;
10412;SDS011;5252;42.602;23.386;2022-08-26T01:16:15;10.13;;;3.50;;
10412;SDS011;5252;42.602;23.386;2022-08-26T01:18:42;10.55;;;3.30;;
10412;SDS011;5252;42.602;23.386;2022-08-26T01:21:11;11.32;;;3.70;;
10412;SDS011;5252;42.602;23.386;2022-08-26T01:23:41;12.43;;;3.90;;
10412;SDS011;5252;42.602;23.386;2022-08-26T01:26:09;10.90;;;3.38;;
10412;SDS011;5252;42.602;23.386;2022-08-26T01:28:37;14.02;;;3.97;;
10412;SDS011;5252;42.602;23.386;2022-08-26T01:31:06;10.70;;;3.72;;
10412;SDS011;5252;42.602;23.386;2022-08-26T01:33:33;9.73;;;3.63;;
10412;SDS011;5252;42.602;23.386;2022-08-26T01:36:01;11.50;;;3.88;;
10412;SDS011;5252;42.602;23.386;2022-08-26T01:38:27;9.27;;;3.47;;
10412;SDS011;5252;42.602;23.386;2022-08-26T01:40:55;9.98;;;4.03;;
10412;SDS011;5252;42.602;23.386;2022-08-26T01:43:23;9.77;;;3.40;;
10412;SDS011;5252;42.602;23.386;2022-08-26T01:45:50;15.38;;;3.47;;
10412;SDS011;5252;42.602;23.386;2022-08-26T01:48:19;11.63;;;3.33;;
10412;SDS011;5252;42.602;23.386;2022-08-26T01:50:46;10.77;;;3.45;;
10412;SDS011;5252;42.602;23.386;2022-08-26T01:53:14;10.90;;;3.45;;
10412;SDS011;5252;42.602;23.386;2022-08-26T01:55:42;14.93;;;3.97;;
10412;SDS011;5252;42.602;23.386;2022-08-26T01:58:12;12.07;;;3.38;;
10412;SDS011;5252;42.602;23.386;2022-08-26T02:00:41;10.85;;;3.53;;
10412;SDS011;5252;42.602;23.386;2022-08-26T02:03:08;9.25;;;3.67;;
10412;SDS011;5252;42.602;23.386;2022-08-26T02:05:47;11.82;;;3.90;;
10412;SDS011;5252;42.602;23.386;2022-08-26T02:08:14;13.57;;;3.88;;
10412;SDS011;5252;42.602;23.386;2022-08-26T02:10:42;16.67;;;4.10;;
10412;SDS011;5252;42.602;23.386;2022-08-26T02:13:10;14.02;;;3.80;;
10412;SDS011;5252;42.602;23.386;2022-08-26T02:15:38;11.63;;;3.97;;
10412;SDS011;5252;42.602;23.386;2022-08-26T02:18:06;19.80;;;4.20;;
10412;SDS011;5252;42.602;23.386;2022-08-26T02:20:33;8.68;;;3.65;;
10412;SDS011;5252;42.602;23.386;2022-08-26T02:23:00;14.65;;;3.60;;
10412;SDS011;5252;42.602;23.386;2022-08-26T02:25:27;12.95;;;3.70;;
10412;SDS011;5252;42.602;23.386;2022-08-26T02:27:55;11.60;;;3.45;;
10412;SDS011;5252;42.602;23.386;2022-08-26T02:30:25;10.13;;;3.72;;
10412;SDS011;5252;42.602;23.386;2022-08-26T02:32:52;13.05;;;4.60;;
10412;SDS011;5252;42.602;23.386;2022-08-26T02:35:19;14.50;;;3.70;;
10412;SDS011;5252;42.602;23.386;2022-08-26T02:37:46;12.85;;;4.00;;
10412;SDS011;5252;42.602;23.386;2022-08-26T02:40:14;11.57;;;3.45;;
10412;SDS011;5252;42.602;23.386;2022-08-26T02:42:41;14.80;;;4.05;;
10412;SDS011;5252;42.602;23.386;2022-08-26T02:45:08;11.77;;;3.60;;
10412;SDS011;5252;42.602;23.386;2022-08-26T02:47:36;10.80;;;3.88;;
10412;SDS011;5252;42.602;23.386;2022-08-26T02:50:03;10.50;;;3.75;;
10412;SDS011;5252;42.602;23.386;2022-08-26T02:52:30;9.30;;;3.65;;
10412;SDS011;5252;42.602;23.386;2022-08-26T02:54:56;7.50;;;3.45;;
10412;SDS011;5252;42.602;23.386;2022-08-26T02:57:23;7.32;;;3.50;;
10412;SDS011;5252;42.602;23.386;2022-08-26T02:59:49;12.45;;;3.75;;
10412;SDS011;5252;42.602;23.386;2022-08-26T03:02:16;11.02;;;3.58;;
10412;SDS011;5252;42.602;23.386;2022-08-26T03:04:44;10.68;;;4.07;;
10412;SDS011;5252;42.602;23.386;2022-08-26T03:07:10;8.07;;;3.53;;
10412;SDS011;5252;42.602;23.386;2022-08-26T03:09:37;12.00;;;3.90;;
10412;SDS011;5252;42.602;23.386;2022-08-26T03:12:03;8.57;;;3.88;;
10412;SDS011;5252;42.602;23.386;2022-08-26T03:14:30;14.50;;;4.18;;
10412;SDS011;5252;42.602;23.386;2022-08-26T03:16:56;9.65;;;4.03;;
10412;SDS011;5252;42.602;23.386;2022-08-26T03:19:23;11.90;;;4.30;;
10412;SDS011;5252;42.602;23.386;2022-08-26T03:21:52;14.98;;;4.10;;
10412;SDS011;5252;42.602;23.386;2022-08-26T03:24:19;14.02;;;3.90;;
10412;SDS011;5252;42.602;23.386;2022-08-26T03:26:45;12.98;;;3.40;;
10412;SDS011;5252;42.602;23.386;2022-08-26T03:29:12;11.07;;;3.60;;
10412;SDS011;5252;42.602;23.386;2022-08-26T03:31:56;12.00;;;3.92;;
10412;SDS011;5252;42.602;23.386;2022-08-26T03:34:23;16.45;;;4.30;;
10412;SDS011;5252;42.602;23.386;2022-08-26T03:36:50;11.93;;;3.40;;
10412;SDS011;5252;42.602;23.386;2022-08-26T03:39:18;9.77;;;4.10;;
10412;SDS011;5252;42.602;23.386;2022-08-26T03:41:44;14.45;;;4.43;;
10412;SDS011;5252;42.602;23.386;2022-08-26T03:44:11;11.35;;;4.10;;
10412;SDS011;5252;42.602;23.386;2022-08-26T03:46:38;10.93;;;4.03;;
10412;SDS011;5252;42.602;23.386;2022-08-26T03:49:05;7.50;;;3.50;;
10412;SDS011;5252;42.602;23.386;2022-08-26T03:51:32;12.85;;;4.07;;
10412;SDS011;5252;42.602;23.386;2022-08-26T03:53:59;10.65;;;4.18;;
10412;SDS011;5252;42.602;23.386;2022-08-26T03:56:28;13.57;;;3.80;;
10412;SDS011;5252;42.602;23.386;2022-08-26T03:58:55;10.23;;;3.78;;
10412;SDS011;5252;42.602;23.386;2022-08-26T04:01:21;14.90;;;4.93;;
10412;SDS011;5252;42.602;23.386;2022-08-26T04:03:48;12.57;;;3.70;;
10412;SDS011;5252;42.602;23.386;2022-08-26T04:06:24;11.85;;;3.90;;
10412;SDS011;5252;42.602;23.386;2022-08-26T04:08:52;11.25;;;4.13;;
10412;SDS011;5252;42.602;23.386;2022-08-26T04:11:19;11.13;;;3.80;;
10412;SDS011;5252;42.602;23.386;2022-08-26T04:13:48;12.38;;;4.03;;
10412;SDS011;5252;42.602;23.386;2022-08-26T04:16:15;11.55;;;3.72;;
10412;SDS011;5252;42.602;23.386;2022-08-26T04:18:42;9.75;;;3.85;;
10412;SDS011;5252;42.602;23.386;2022-08-26T04:21:08;11.25;;;3.92;;
10412;SDS011;5252;42.602;23.386;2022-08-26T04:23:36;10.05;;;3.35;;
10412;SDS011;5252;42.602;23.386;2022-08-26T04:26:02;10.07;;;3.95;;
10412;SDS011;5252;42.602;23.386;2022-08-26T04:28:29;15.27;;;3.58;;
10412;SDS011;5252;42.602;23.386;2022-08-26T04:30:57;13.18;;;4.40;;
10412;SDS011;5252;42.602;23.386;2022-08-26T04:33:24;11.30;;;3.83;;
10412;SDS011;5252;42.602;23.386;2022-08-26T04:35:57;11.90;;;3.78;;
10412;SDS011;5252;42.602;23.386;2022-08-26T04:38:24;11.45;;;3.88;;
10412;SDS011;5252;42.602;23.386;2022-08-26T04:40:50;11.05;;;3.78;;
10412;SDS011;5252;42.602;23.386;2022-08-26T04:43:17;11.45;;;4.03;;
10412;SDS011;5252;42.602;23.386;2022-08-26T04:45:43;13.05;;;3.78;;
10412;SDS011;5252;42.602;23.386;2022-08-26T04:48:11;9.95;;;4.03;;
10412;SDS011;5252;42.602;23.386;2022-08-26T04:50:38;11.00;;;3.38;;
10412;SDS011;5252;42.602;23.386;2022-08-26T04:53:04;9.63;;;3.10;;
10412;SDS011;5252;42.602;23.386;2022-08-26T04:55:31;16.20;;;3.88;;
10412;SDS011;5252;42.602;23.386;2022-08-26T04:57:57;7.45;;;3.30;;
10412;SDS011;5252;42.602;23.386;2022-08-26T05:00:24;9.50;;;3.42;;
10412;SDS011;5252;42.602;23.386;2022-08-26T05:02:50;12.30;;;3.80;;
10412;SDS011;5252;42.602;23.386;2022-08-26T05:05:19;14.30;;;3.65;;
10412;SDS011;5252;42.602;23.386;2022-08-26T05:07:45;12.82;;;3.70;;
10412;SDS011;5252;42.602;23.386;2022-08-26T05:10:12;9.48;;;3.28;;
10412;SDS011;5252;42.602;23.386;2022-08-26T05:12:38;14.73;;;3.90;;
10412;SDS011;5252;42.602;23.386;2022-08-26T05:15:05;15.52;;;4.22;;
10412;SDS011;5252;42.602;23.386;2022-08-26T05:17:32;8.23;;;3.53;;
10412;SDS011;5252;42.602;23.386;2022-08-26T05:19:59;13.50;;;3.60;;
10412;SDS011;5252;42.602;23.386;2022-08-26T05:22:26;13.48;;;3.72;;
10412;SDS011;5252;42.602;23.386;2022-08-26T05:24:53;13.20;;;3.67;;
10412;SDS011;5252;42.602;23.386;2022-08-26T05:27:19;15.50;;;4.50;;
10412;SDS011;5252;42.602;23.386;2022-08-26T05:29:46;13.75;;;3.90;;
10412;SDS011;5252;42.602;23.386;2022-08-26T05:32:13;15.80;;;4.30;;
10412;SDS011;5252;42.602;23.386;2022-08-26T05:34:40;13.18;;;3.70;;
10412;SDS011;5252;42.602;23.386;2022-08-26T05:37:06;14.50;;;3.67;;
10412;SDS011;5252;42.602;23.386;2022-08-26T05:39:34;14.80;;;3.40;;
10412;SDS011;5252;42.602;23.386;2022-08-26T05:42:00;9.07;;;3.47;;
10412;SDS011;5252;42.602;23.386;2022-08-26T05:44:28;15.60;;;3.92;;
10412;SDS011;5252;42.602;23.386;2022-08-26T05:46:54;13.90;;;3.58;;
10412;SDS011;5252;42.602;23.386;2022-08-26T05:49:21;15.43;;;4.15;;
10412;SDS011;5252;42.602;23.386;2022-08-26T05:51:47;10.40;;;3.88;;
10412;SDS011;5252;42.602;23.386;2022-08-26T05:54:14;12.38;;;4.20;;
10412;SDS011;5252;42.602;23.386;2022-08-26T05:56:42;12.02;;;3.60;;
10412;SDS011;5252;42.602;23.386;2022-08-26T05:59:11;10.40;;;3.58;;
10412;SDS011;5252;42.602;23.386;2022-08-26T06:01:37;11.10;;;3.40;;
10412;SDS011;5252;42.602;23.386;2022-08-26T06:04:04;10.90;;;3.90;;
10412;SDS011;5252;42.602;23.386;2022-08-26T06:06:31;11.13;;;3.95;;
10412;SDS011;5252;42.602;23.386;2022-08-26T06:08:59;8.77;;;3.97;;
10412;SDS011;5252;42.602;23.386;2022-08-26T06:11:26;10.40;;;3.78;;
10412;SDS011;5252;42.602;23.386;2022-08-26T06:13:55;9.77;;;3.58;;
10412;SDS011;5252;42.602;23.386;2022-08-26T06:16:23;10.88;;;3.70;;
10412;SDS011;5252;42.602;23.386;2022-08-26T06:18:50;12.93;;;3.78;;
10412;SDS011;5252;42.602;23.386;2022-08-26T06:21:17;16.05;;;4.40;;
10412;SDS011;5252;42.602;23.386;2022-08-26T06:23:44;11.95;;;4.13;;
10412;SDS011;5252;42.602;23.386;2022-08-26T06:26:29;10.55;;;3.55;;
10412;SDS011;5252;42.602;23.386;2022-08-26T06:28:57;9.55;;;4.03;;
10412;SDS011;5252;42.602;23.386;2022-08-26T06:31:23;17.05;;;4.22;;
10412;SDS011;5252;42.602;23.386;2022-08-26T06:33:50;14.63;;;4.18;;
10412;SDS011;5252;42.602;23.386;2022-08-26T06:36:17;11.55;;;4.65;;
10412;SDS011;5252;42.602;23.386;2022-08-26T06:38:45;10.45;;;4.30;;
10412;SDS011;5252;42.602;23.386;2022-08-26T06:41:11;8.55;;;3.85;;
10412;SDS011;5252;42.602;23.386;2022-08-26T06:43:38;12.68;;;5.05;;
10412;SDS011;5252;42.602;23.386;2022-08-26T06:46:08;12.35;;;5.10;;
10412;SDS011;5252;42.602;23.386;2022-08-26T06:48:35;12.05;;;4.25;;
10412;SDS011;5252;42.602;23.386;2022-08-26T06:51:03;12.25;;;4.63;;
10412;SDS011;5252;42.602;23.386;2022-08-26T06:53:29;15.60;;;5.07;;
10412;SDS011;5252;42.602;23.386;2022-08-26T06:55:56;12.68;;;4.28;;
10412;SDS011;5252;42.602;23.386;2022-08-26T06:58:23;20.27;;;4.82;;
10412;SDS011;5252;42.602;23.386;2022-08-26T07:00:49;15.55;;;5.18;;
10412;SDS011;5252;42.602;23.386;2022-08-26T07:03:17;10.93;;;4.55;;
10412;SDS011;5252;42.602;23.386;2022-08-26T07:05:45;10.18;;;4.28;;
10412;SDS011;5252;42.602;23.386;2022-08-26T07:08:12;14.55;;;4.78;;
10412;SDS011;5252;42.602;23.386;2022-08-26T07:10:38;15.38;;;4.22;;
10412;SDS011;5252;42.602;23.386;2022-08-26T07:13:05;14.45;;;4.82;;
10412;SDS011;5252;42.602;23.386;2022-08-26T07:15:32;14.40;;;4.05;;
10412;SDS011;5252;42.602;23.386;2022-08-26T07:17:59;14.00;;;4.40;;
10412;SDS011;5252;42.602;23.386;2022-08-26T07:20:28;12.40;;;4.32;;
10412;SDS011;5252;42.602;23.386;2022-08-26T07:22:54;15.93;;;4.47;;
10412;SDS011;5252;42.602;23.386;2022-08-26T07:25:23;17.65;;;5.00;;
10412;SDS011;5252;42.602;23.386;2022-08-26T07:27:50;10.00;;;4.10;;
10412;SDS011;5252;42.602;23.386;2022-08-26T07:30:16;15.02;;;4.50;;
10412;SDS011;5252;42.602;23.386;2022-08-26T07:32:43;16.52;;;4.00;;
10412;SDS011;5252;42.602;23.386;2022-08-26T07:35:10;13.82;;;4.13;;
10412;SDS011;5252;42.602;23.386;2022-08-26T07:37:37;11.70;;;3.67;;
10412;SDS011;5252;42.602;23.386;2022-08-26T07:40:05;12.32;;;4.05;;
10412;SDS011;5252;42.602;23.386;2022-08-26T07:42:31;18.63;;;4.50;;
10412;SDS011;5252;42.602;23.386;2022-08-26T07:44:58;18.00;;;4.22;;
10412;SDS011;5252;42.602;23.386;2022-08-26T07:47:24;13.60;;;3.80;;
10412;SDS011;5252;42.602;23.386;2022-08-26T07:49:52;13.80;;;4.05;;
10412;SDS011;5252;42.602;23.386;2022-08-26T07:52:18;14.27;;;4.03;;
10412;SDS011;5252;42.602;23.386;2022-08-26T07:54:46;10.27;;;3.22;;
10412;SDS011;5252;42.602;23.386;2022-08-26T07:57:13;15.48;;;4.25;;
10412;SDS011;5252;42.602;23.386;2022-08-26T07:59:39;13.90;;;3.70;;
10412;SDS011;5252;42.602;23.386;2022-08-26T08:02:06;11.85;;;3.47;;
10412;SDS011;5252;42.602;23.386;2022-08-26T08:04:33;14.80;;;3.58;;
10412;SDS011;5252;42.602;23.386;2022-08-26T08:06:59;13.80;;;3.20;;
10412;SDS011;5252;42.602;23.386;2022-08-26T08:09:26;13.02;;;3.65;;
10412;SDS011;5252;42.602;23.386;2022-08-26T08:11:55;13.38;;;3.80;;
10412;SDS011;5252;42.602;23.386;2022-08-26T08:14:21;11.13;;;3.45;;
10412;SDS011;5252;42.602;23.386;2022-08-26T08:16:48;18.27;;;4.10;;
10412;SDS011;5252;42.602;23.386;2022-08-26T08:19:14;13.45;;;3.33;;
10412;SDS011;5252;42.602;23.386;2022-08-26T08:21:41;17.70;;;4.18;;
10412;SDS011;5252;42.602;23.386;2022-08-26T08:24:08;15.90;;;3.90;;
10412;SDS011;5252;42.602;23.386;2022-08-26T08:26:35;12.23;;;3.45;;
10412;SDS011;5252;42.602;23.386;2022-08-26T08:29:03;12.75;;;3.78;;
10412;SDS011;5252;42.602;23.386;2022-08-26T08:31:32;8.50;;;3.10;;
10412;SDS011;5252;42.602;23.386;2022-08-26T08:33:58;14.23;;;2.75;;
10412;SDS011;5252;42.602;23.386;2022-08-26T08:36:25;12.80;;;3.42;;
10412;SDS011;5252;42.602;23.386;2022-08-26T08:38:51;15.45;;;3.83;;
10412;SDS011;5252;42.602;23.386;2022-08-26T08:41:36;9.90;;;2.90;;
10412;SDS011;5252;42.602;23.386;2022-08-26T08:44:09;14.95;;;3.22;;
10412;SDS011;5252;42.602;23.386;2022-08-26T08:46:37;9.45;;;3.20;;
10412;SDS011;5252;42.602;23.386;2022-08-26T08:49:04;19.02;;;3.25;;
10412;SDS011;5252;42.602;23.386;2022-08-26T08:51:32;12.55;;;3.85;;
10412;SDS011;5252;42.602;23.386;2022-08-26T08:54:04;13.10;;;3.97;;
10412;SDS011;5252;42.602;23.386;2022-08-26T08:56:31;13.23;;;3.40;;
10412;SDS011;5252;42.602;23.386;2022-08-26T08:59:00;19.45;;;4.30;;
10412;SDS011;5252;42.602;23.386;2022-08-26T09:01:44;11.85;;;2.80;;
10412;SDS011;5252;42.602;23.386;2022-08-26T09:04:26;8.38;;;2.97;;
10412;SDS011;5252;42.602;23.386;2022-08-26T09:06:55;10.07;;;3.40;;
10412;SDS011;5252;42.602;23.386;2022-08-26T09:09:25;10.10;;;3.13;;
10412;SDS011;5252;42.602;23.386;2022-08-26T09:11:54;12.98;;;3.42;;
10412;SDS011;5252;42.602;23.386;2022-08-26T09:14:22;14.50;;;3.42;;
10412;SDS011;5252;42.602;23.386;2022-08-26T09:16:53;11.43;;;3.70;;
10412;SDS011;5252;42.602;23.386;2022-08-26T09:19:24;11.13;;;3.83;;
10412;SDS011;5252;42.602;23.386;2022-08-26T09:21:54;18.52;;;3.80;;
10412;SDS011;5252;42.602;23.386;2022-08-26T09:24:20;9.65;;;3.72;;
10412;SDS011;5252;42.602;23.386;2022-08-26T09:26:47;9.52;;;4.10;;
10412;SDS011;5252;42.602;23.386;2022-08-26T09:29:21;10.98;;;3.78;;
10412;SDS011;5252;42.602;23.386;2022-08-26T09:31:48;16.85;;;4.47;;
10412;SDS011;5252;42.602;23.386;2022-08-26T09:34:17;11.50;;;4.28;;
10412;SDS011;5252;42.602;23.386;2022-08-26T09:36:44;14.32;;;4.72;;
10412;SDS011;5252;42.602;23.386;2022-08-26T09:39:31;10.50;;;4.07;;
10412;SDS011;5252;42.602;23.386;2022-08-26T09:42:01;10.52;;;3.55;;
10412;SDS011;5252;42.602;23.386;2022-08-26T09:44:28;12.77;;;4.15;;
10412;SDS011;5252;42.602;23.386;2022-08-26T09:46:56;10.57;;;4.22;;
10412;SDS011;5252;42.602;23.386;2022-08-26T09:49:25;16.70;;;4.00;;
10412;SDS011;5252;42.602;23.386;2022-08-26T09:52:03;10.35;;;4.50;;
10412;SDS011;5252;42.602;23.386;2022-08-26T09:54:31;12.85;;;4.53;;
10412;SDS011;5252;42.602;23.386;2022-08-26T09:57:09;14.57;;;4.47;;
10412;SDS011;5252;42.602;23.386;2022-08-26T09:59:35;12.48;;;5.28;;
10412;SDS011;5252;42.602;23.386;2022-08-26T10:02:13;9.27;;;4.95;;
10412;SDS011;5252;42.602;23.386;2022-08-26T10:04:43;10.93;;;4.60;;
10412;SDS011;5252;42.602;23.386;2022-08-26T10:07:14;13.40;;;4.45;;
10412;SDS011;5252;42.602;23.386;2022-08-26T10:09:58;10.27;;;4.47;;
10412;SDS011;5252;42.602;23.386;2022-08-26T10:12:25;10.65;;;4.35;;
10412;SDS011;5252;42.602;23.386;2022-08-26T10:14:52;10.88;;;4.20;;
10412;SDS011;5252;42.602;23.386;2022-08-26T10:17:21;11.60;;;4.63;;
10412;SDS011;5252;42.602;23.386;2022-08-26T10:19:53;13.80;;;4.75;;
10412;SDS011;5252;42.602;23.386;2022-08-26T10:22:22;16.85;;;5.32;;
10412;SDS011;5252;42.602;23.386;2022-08-26T10:24:52;20.50;;;6.10;;
10412;SDS011;5252;42.602;23.386;2022-08-26T10:27:22;10.60;;;5.03;;
10412;SDS011;5252;42.602;23.386;2022-08-26T10:29:50;11.57;;;4.63;;
10412;SDS011;5252;42.602;23.386;2022-08-26T10:32:19;9.95;;;5.00;;
10412;SDS011;5252;42.602;23.386;2022-08-26T10:34:46;12.48;;;5.63;;
10412;SDS011;5252;42.602;23.386;2022-08-26T10:37:15;10.93;;;5.32;;
10412;SDS011;5252;42.602;23.386;2022-08-26T10:39:45;14.85;;;5.40;;
10412;SDS011;5252;42.602;23.386;2022-08-26T10:42:15;9.88;;;5.57;;
10412;SDS011;5252;42.602;23.386;2022-08-26T10:44:42;9.52;;;5.32;;
10412;SDS011;5252;42.602;23.386;2022-08-26T10:47:11;14.93;;;5.68;;
10412;SDS011;5252;42.602;23.386;2022-08-26T10:49:39;13.70;;;5.15;;
10412;SDS011;5252;42.602;23.386;2022-08-26T10:52:07;9.77;;;4.95;;
10412;SDS011;5252;42.602;23.386;2022-08-26T10:54:37;14.10;;;5.05;;
10412;SDS011;5252;42.602;23.386;2022-08-26T10:57:07;11.93;;;4.90;;
10412;SDS011;5252;42.602;23.386;2022-08-26T10:59:40;13.82;;;5.00;;
10412;SDS011;5252;42.602;23.386;2022-08-26T11:02:11;11.82;;;4.97;;
10412;SDS011;5252;42.602;23.386;2022-08-26T11:04:41;8.23;;;4.95;;
10412;SDS011;5252;42.602;23.386;2022-08-26T11:09:55;8.00;;;4.82;;
10412;SDS011;5252;42.602;23.386;2022-08-26T11:15:07;13.75;;;5.13;;
10412;SDS011;5252;42.602;23.386;2022-08-26T11:17:53;10.95;;;4.65;;
10412;SDS011;5252;42.602;23.386;2022-08-26T11:20:29;14.18;;;4.95;;
10412;SDS011;5252;42.602;23.386;2022-08-26T11:23:34;11.07;;;4.90;;
10412;SDS011;5252;42.602;23.386;2022-08-26T11:28:32;14.70;;;5.47;;
10412;SDS011;5252;42.602;23.386;2022-08-26T11:30:59;11.25;;;5.10;;
10412;SDS011;5252;42.602;23.386;2022-08-26T11:33:44;10.95;;;4.97;;
10412;SDS011;5252;42.602;23.386;2022-08-26T11:36:11;13.50;;;5.05;;
10412;SDS011;5252;42.602;23.386;2022-08-26T11:38:53;11.43;;;5.47;;
10412;SDS011;5252;42.602;23.386;2022-08-26T11:41:20;12.27;;;5.18;;
10412;SDS011;5252;42.602;23.386;2022-08-26T11:43:49;14.93;;;5.00;;
10412;SDS011;5252;42.602;23.386;2022-08-26T11:46:22;11.30;;;5.07;;
10412;SDS011;5252;42.602;23.386;2022-08-26T11:48:49;9.50;;;4.78;;
10412;SDS011;5252;42.602;23.386;2022-08-26T11:51:19;13.05;;;4.82;;
10412;SDS011;5252;42.602;23.386;2022-08-26T11:53:46;13.85;;;4.80;;
10412;SDS011;5252;42.602;23.386;2022-08-26T11:56:15;10.40;;;4.95;;
10412;SDS011;5252;42.602;23.386;2022-08-26T11:58:43;9.77;;;4.32;;
10412;SDS011;5252;42.602;23.386;2022-08-26T12:01:12;11.05;;;5.00;;
10412;SDS011;5252;42.602;23.386;2022-08-26T12:03:40;13.15;;;4.97;;
10412;SDS011;5252;42.602;23.386;2022-08-26T12:06:12;11.77;;;5.10;;
10412;SDS011;5252;42.602;23.386;2022-08-26T12:08:40;9.63;;;4.28;;
10412;SDS011;5252;42.602;23.386;2022-08-26T12:11:09;13.52;;;4.75;;
10412;SDS011;5252;42.602;23.386;2022-08-26T12:13:37;14.30;;;4.85;;
10412;SDS011;5252;42.602;23.386;2022-08-26T12:16:04;8.98;;;4.32;;
10412;SDS011;5252;42.602;23.386;2022-08-26T12:18:33;13.25;;;4.45;;
10412;SDS011;5252;42.602;23.386;2022-08-26T12:21:00;17.70;;;4.53;;
10412;SDS011;5252;42.602;23.386;2022-08-26T12:23:39;11.98;;;4.75;;
10412;SDS011;5252;42.602;23.386;2022-08-26T12:26:07;12.10;;;5.13;;
10412;SDS011;5252;42.602;23.386;2022-08-26T12:28:40;13.43;;;4.63;;
10412;SDS011;5252;42.602;23.386;2022-08-26T12:31:07;11.77;;;4.38;;
10412;SDS011;5252;42.602;23.386;2022-08-26T12:33:35;14.60;;;4.47;;
10412;SDS011;5252;42.602;23.386;2022-08-26T12:36:02;14.93;;;5.07;;
10412;SDS011;5252;42.602;23.386;2022-08-26T12:38:29;10.80;;;4.47;;
10412;SDS011;5252;42.602;23.386;2022-08-26T12:40:56;10.18;;;4.68;;
10412;SDS011;5252;42.602;23.386;2022-08-26T12:43:36;8.85;;;4.00;;
10412;SDS011;5252;42.602;23.386;2022-08-26T12:46:03;9.05;;;4.10;;
10412;SDS011;5252;42.602;23.386;2022-08-26T12:48:31;10.35;;;3.97;;
10412;SDS011;5252;42.602;23.386;2022-08-26T12:51:00;6.50;;;3.90;;
10412;SDS011;5252;42.602;23.386;2022-08-26T12:53:28;8.10;;;3.83;;
10412;SDS011;5252;42.602;23.386;2022-08-26T12:55:56;11.30;;;3.90;;
10412;SDS011;5252;42.602;23.386;2022-08-26T12:58:24;11.57;;;3.63;;
10412;SDS011;5252;42.602;23.386;2022-08-26T13:00:52;11.10;;;3.92;;
10412;SDS011;5252;42.602;23.386;2022-08-26T13:03:29;9.63;;;3.83;;
10412;SDS011;5252;42.602;23.386;2022-08-26T13:06:08;13.18;;;3.65;;
10412;SDS011;5252;42.602;23.386;2022-08-26T13:08:37;8.25;;;3.60;;
10412;SDS011;5252;42.602;23.386;2022-08-26T13:11:07;10.65;;;3.15;;
10412;SDS011;5252;42.602;23.386;2022-08-26T13:13:36;10.15;;;3.60;;
10412;SDS011;5252;42.602;23.386;2022-08-26T13:16:02;10.23;;;3.55;;
10412;SDS011;5252;42.602;23.386;2022-08-26T13:18:29;6.10;;;3.45;;
10412;SDS011;5252;42.602;23.386;2022-08-26T13:20:56;9.65;;;3.53;;
10412;SDS011;5252;42.602;23.386;2022-08-26T13:23:24;6.65;;;3.50;;
10412;SDS011;5252;42.602;23.386;2022-08-26T13:25:50;10.40;;;3.67;;
10412;SDS011;5252;42.602;23.386;2022-08-26T13:28:17;11.45;;;3.17;;
10412;SDS011;5252;42.602;23.386;2022-08-26T13:30:44;7.75;;;3.30;;
10412;SDS011;5252;42.602;23.386;2022-08-26T13:33:12;7.28;;;3.15;;
10412;SDS011;5252;42.602;23.386;2022-08-26T13:35:38;13.20;;;3.65;;
10412;SDS011;5252;42.602;23.386;2022-08-26T13:38:05;7.55;;;2.63;;
10412;SDS011;5252;42.602;23.386;2022-08-26T13:40:40;10.02;;;2.65;;
10412;SDS011;5252;42.602;23.386;2022-08-26T13:43:07;9.45;;;2.72;;
10412;SDS011;5252;42.602;23.386;2022-08-26T13:45:34;7.38;;;2.60;;
10412;SDS011;5252;42.602;23.386;2022-08-26T13:48:00;8.68;;;2.58;;
10412;SDS011;5252;42.602;23.386;2022-08-26T13:50:27;8.07;;;2.80;;
10412;SDS011;5252;42.602;23.386;2022-08-26T13:52:53;7.93;;;2.83;;
10412;SDS011;5252;42.602;23.386;2022-08-26T13:55:20;6.90;;;2.67;;
10412;SDS011;5252;42.602;23.386;2022-08-26T13:57:48;6.03;;;2.60;;
10412;SDS011;5252;42.602;23.386;2022-08-26T14:00:15;6.63;;;2.55;;
10412;SDS011;5252;42.602;23.386;2022-08-26T14:02:41;6.65;;;2.58;;
10412;SDS011;5252;42.602;23.386;2022-08-26T14:05:08;6.68;;;2.83;;
10412;SDS011;5252;42.602;23.386;2022-08-26T14:07:34;10.80;;;2.80;;
10412;SDS011;5252;42.602;23.386;2022-08-26T14:10:01;10.75;;;2.70;;
10412;SDS011;5252;42.602;23.386;2022-08-26T14:12:28;5.07;;;2.28;;
10412;SDS011;5252;42.602;23.386;2022-08-26T14:14:55;10.60;;;2.78;;
10412;SDS011;5252;42.602;23.386;2022-08-26T14:17:22;12.70;;;2.80;;
10412;SDS011;5252;42.602;23.386;2022-08-26T14:19:50;7.07;;;2.55;;
10412;SDS011;5252;42.602;23.386;2022-08-26T14:22:18;10.65;;;2.67;;
10412;SDS011;5252;42.602;23.386;2022-08-26T14:24:45;8.88;;;2.78;;
10412;SDS011;5252;42.602;23.386;2022-08-26T14:27:12;8.70;;;2.40;;
10412;SDS011;5252;42.602;23.386;2022-08-26T14:29:38;9.73;;;2.70;;
10412;SDS011;5252;42.602;23.386;2022-08-26T14:32:08;10.80;;;3.13;;
10412;SDS011;5252;42.602;23.386;2022-08-26T14:34:35;6.68;;;2.65;;
10412;SDS011;5252;42.602;23.386;2022-08-26T14:37:02;8.23;;;2.42;;
10412;SDS011;5252;42.602;23.386;2022-08-26T14:39:31;8.18;;;2.42;;
10412;SDS011;5252;42.602;23.386;2022-08-26T14:41:57;8.93;;;2.75;;
10412;SDS011;5252;42.602;23.386;2022-08-26T14:44:25;6.05;;;2.28;;
10412;SDS011;5252;42.602;23.386;2022-08-26T14:46:53;6.00;;;2.20;;
10412;SDS011;5252;42.602;23.386;2022-08-26T14:49:21;6.30;;;2.50;;
10412;SDS011;5252;42.602;23.386;2022-08-26T14:51:48;4.97;;;2.47;;